Time,TemperatureF,DewpointF,PressureIn,WindDirection,WindDirectionDegrees,WindSpeedMPH,WindSpeedGustMPH,Humidity,HourlyPrecipIn,Conditions,Clouds,dailyrainin,SoftwareType,DateUTC
2013-02-09 00:01:00,36.0,34.2,29.90,SE,138,0.0,0.0,93,0.00,,---,0.00,VWS V14.01,2013-02-09 08:01:00,
2013-02-09 00:06:00,36.2,34.4,29.90,SE,138,0.0,0.0,93,0.00,,---,0.00,VWS V14.01,2013-02-09 08:06:00,
2013-02-09 00:11:00,36.2,34.4,29.90,SE,138,0.0,0.0,93,0.00,,---,0.00,VWS V14.01,2013-02-09 08:11:00,
2013-02-09 00:16:00,36.5,34.7,29.91,SE,138,0.0,1.0,93,0.00,,---,0.00,VWS V14.01,2013-02-09 08:16:00,
2013-02-09 00:21:00,36.6,34.8,29.91,SE,138,0.0,1.0,93,0.00,,---,0.00,VWS V14.01,2013-02-09 08:21:00,
2013-02-09 00:26:00,36.8,35.0,29.91,SE,138,0.0,1.0,93,0.00,,---,0.00,VWS V14.01,2013-02-09 08:26:00,
2013-02-09 00:31:00,37.0,35.2,29.92,SE,138,0.0,0.0,93,0.00,,---,0.00,VWS V14.01,2013-02-09 08:31:00,
2013-02-09 00:36:00,37.2,35.4,29.92,SE,138,0.0,1.0,93,0.00,,---,0.00,VWS V14.01,2013-02-09 08:36:00,
2013-02-09 00:41:00,37.2,35.4,29.92,SE,138,0.0,1.0,93,0.00,,---,0.00,VWS V14.01,2013-02-09 08:41:00,
2013-02-09 00:46:00,37.3,35.5,29.92,SE,138,0.0,1.0,93,0.00,,---,0.00,VWS V14.01,2013-02-09 08:46:00,
2013-02-09 00:51:00,37.3,35.5,29.92,SE,138,0.0,1.0,93,0.00,,---,0.00,VWS V14.01,2013-02-09 08:51:00,
2013-02-09 00:56:00,37.3,35.5,29.92,SE,138,0.0,1.0,93,0.00,,---,0.00,VWS V14.01,2013-02-09 08:56:00,
2013-02-09 01:01:00,37.2,35.4,29.92,SE,138,0.0,0.0,93,0.00,,---,0.00,VWS V14.01,2013-02-09 09:01:00,
2013-02-09 01:06:00,37.2,35.4,29.92,SE,138,0.0,0.0,93,0.00,,---,0.00,VWS V14.01,2013-02-09 09:06:00,
2013-02-09 01:11:00,37.2,35.4,29.92,SE,138,0.0,0.0,93,0.00,,---,0.00,VWS V14.01,2013-02-09 09:11:00,
2013-02-09 01:16:00,37.2,35.4,29.92,SE,138,0.0,0.0,93,0.00,,---,0.00,VWS V14.01,2013-02-09 09:16:00,
2013-02-09 01:21:00,37.0,35.2,29.92,SE,138,0.0,1.0,93,0.00,,---,0.00,VWS V14.01,2013-02-09 09:21:00,
2013-02-09 01:26:00,37.0,35.2,29.92,SE,138,0.0,1.0,93,0.00,,---,0.00,VWS V14.01,2013-02-09 09:26:00,
2013-02-09 01:31:00,36.9,35.1,29.92,SE,138,0.0,0.0,93,0.00,,---,0.00,VWS V14.01,2013-02-09 09:31:00,
2013-02-09 01:36:00,36.6,34.8,29.92,SE,138,0.0,0.0,93,0.00,,---,0.00,VWS V14.01,2013-02-09 09:36:00,
2013-02-09 01:41:00,36.3,34.5,29.92,SE,138,0.0,0.0,93,0.00,,---,0.00,VWS V14.01,2013-02-09 09:41:00,
2013-02-09 01:46:00,36.2,34.4,29.92,SE,138,0.0,0.0,93,0.00,,---,0.00,VWS V14.01,2013-02-09 09:46:00,
2013-02-09 01:51:00,35.9,34.1,29.92,SE,138,0.0,0.0,93,0.00,,---,0.00,VWS V14.01,2013-02-09 09:51:00,
2013-02-09 01:56:00,35.8,34.0,29.92,SE,138,0.0,0.0,93,0.00,,---,0.00,VWS V14.01,2013-02-09 09:56:00,
2013-02-09 02:01:00,35.6,33.8,29.93,SE,138,0.0,0.0,93,0.00,,---,0.00,VWS V14.01,2013-02-09 10:01:00,
2013-02-09 02:06:00,35.5,33.7,29.93,SE,138,0.0,0.0,93,0.00,,---,0.00,VWS V14.01,2013-02-09 10:06:00,
2013-02-09 02:11:00,35.5,33.7,29.93,SE,138,0.0,0.0,93,0.00,,---,0.00,VWS V14.01,2013-02-09 10:11:00,
2013-02-09 02:16:00,35.5,33.7,29.92,SE,138,0.0,0.0,93,0.00,,---,0.00,VWS V14.01,2013-02-09 10:16:00,
2013-02-09 02:21:00,35.3,33.5,29.92,SE,138,0.0,0.0,93,0.00,,---,0.00,VWS V14.01,2013-02-09 10:21:00,
2013-02-09 02:26:00,35.2,33.4,29.92,SE,138,0.0,0.0,93,0.00,,---,0.00,VWS V14.01,2013-02-09 10:26:00,
2013-02-09 02:31:00,35.0,33.2,29.92,SE,138,0.0,0.0,93,0.00,,---,0.00,VWS V14.01,2013-02-09 10:31:00,
2013-02-09 02:36:00,34.9,33.1,29.92,SE,138,0.0,0.0,93,0.00,,---,0.00,VWS V14.01,2013-02-09 10:36:00,
2013-02-09 02:41:00,34.9,33.1,29.92,SE,138,0.0,0.0,93,0.00,,---,0.00,VWS V14.01,2013-02-09 10:41:00,
2013-02-09 02:46:00,34.7,32.9,29.92,SE,138,0.0,0.0,93,0.01,,---,0.01,VWS V14.01,2013-02-09 10:46:00,
2013-02-09 02:51:00,34.7,32.9,29.92,SE,138,0.0,0.0,93,0.01,,---,0.01,VWS V14.01,2013-02-09 10:51:00,
2013-02-09 02:56:00,34.7,32.9,29.92,SE,138,0.0,0.0,93,0.01,,---,0.01,VWS V14.01,2013-02-09 10:56:00,
2013-02-09 03:01:00,34.6,32.8,29.92,SE,138,0.0,0.0,93,0.01,,---,0.01,VWS V14.01,2013-02-09 11:01:00,
2013-02-09 03:05:00,34.4,32.6,29.92,SE,138,0.0,0.0,93,0.01,,---,0.01,VWS V14.01,2013-02-09 11:05:00,
2013-02-09 03:10:00,34.3,32.5,29.92,SE,138,0.0,0.0,93,0.01,,---,0.01,VWS V14.01,2013-02-09 11:10:00,
2013-02-09 03:15:00,34.1,32.3,29.93,SE,138,0.0,0.0,93,0.01,,---,0.01,VWS V14.01,2013-02-09 11:15:00,
2013-02-09 03:20:00,34.0,32.2,29.93,SE,138,0.0,0.0,93,0.01,,---,0.01,VWS V14.01,2013-02-09 11:20:00,
2013-02-09 03:25:00,34.0,32.2,29.93,SE,138,0.0,1.0,93,0.01,,---,0.01,VWS V14.01,2013-02-09 11:25:00,
2013-02-09 03:30:00,33.8,32.0,29.93,SE,138,0.0,0.0,93,0.01,,---,0.01,VWS V14.01,2013-02-09 11:30:00,
2013-02-09 03:35:00,33.7,31.9,29.93,SE,138,0.0,0.0,93,0.01,,---,0.01,VWS V14.01,2013-02-09 11:35:00,
2013-02-09 03:40:00,33.5,31.7,29.93,SE,138,0.0,0.0,93,0.01,,---,0.01,VWS V14.01,2013-02-09 11:40:00,
2013-02-09 03:45:00,33.4,31.6,29.93,SE,138,0.0,0.0,93,0.01,,---,0.01,VWS V14.01,2013-02-09 11:45:00,
2013-02-09 03:50:00,33.2,31.4,29.93,SE,138,0.0,0.0,93,0.01,,---,0.01,VWS V14.01,2013-02-09 11:50:00,
2013-02-09 03:55:00,33.1,31.3,29.93,SE,138,0.0,0.0,93,0.01,,---,0.01,VWS V14.01,2013-02-09 11:55:00,
2013-02-09 04:00:00,32.8,31.0,29.93,SE,138,0.0,0.0,93,0.00,,---,0.01,VWS V14.01,2013-02-09 12:00:00,
2013-02-09 04:05:00,32.7,30.9,29.93,SE,138,0.0,0.0,93,0.00,,---,0.01,VWS V14.01,2013-02-09 12:05:00,
2013-02-09 04:10:00,32.5,30.7,29.93,SE,138,0.0,0.0,93,0.00,,---,0.01,VWS V14.01,2013-02-09 12:10:00,
2013-02-09 04:15:00,32.5,30.7,29.94,SE,138,0.0,0.0,93,0.00,,---,0.01,VWS V14.01,2013-02-09 12:15:00,
2013-02-09 04:20:00,32.5,30.7,29.94,SE,138,0.0,0.0,93,0.00,,---,0.01,VWS V14.01,2013-02-09 12:20:00,
2013-02-09 04:25:00,32.7,30.9,29.94,SE,138,0.0,0.0,93,0.00,,---,0.01,VWS V14.01,2013-02-09 12:25:00,
2013-02-09 04:30:00,32.7,30.9,29.94,SE,138,0.0,0.0,93,0.00,,---,0.01,VWS V14.01,2013-02-09 12:30:00,
2013-02-09 04:35:00,32.7,30.9,29.94,SE,138,0.0,1.0,93,0.00,,---,0.01,VWS V14.01,2013-02-09 12:35:00,
2013-02-09 04:40:00,32.7,30.9,29.94,SE,138,0.0,1.0,93,0.00,,---,0.01,VWS V14.01,2013-02-09 12:40:00,
2013-02-09 04:45:00,32.5,30.7,29.94,SE,138,0.0,1.0,93,0.00,,---,0.01,VWS V14.01,2013-02-09 12:45:00,
2013-02-09 04:50:00,32.5,30.7,29.94,SE,138,0.0,1.0,93,0.00,,---,0.01,VWS V14.01,2013-02-09 12:50:00,
2013-02-09 04:55:00,32.4,30.6,29.94,SE,138,0.0,1.0,93,0.00,,---,0.01,VWS V14.01,2013-02-09 12:55:00,
2013-02-09 05:00:00,32.4,30.6,29.93,SE,138,0.0,0.0,93,0.00,,---,0.01,VWS V14.01,2013-02-09 13:00:00,
2013-02-09 05:05:00,32.2,30.4,29.93,SE,138,0.0,0.0,93,0.00,,---,0.01,VWS V14.01,2013-02-09 13:05:00,
2013-02-09 05:10:00,32.1,30.3,29.93,SE,138,0.0,0.0,93,0.00,,---,0.01,VWS V14.01,2013-02-09 13:10:00,
2013-02-09 05:15:00,32.1,30.3,29.94,SE,138,0.0,1.0,93,0.00,,---,0.01,VWS V14.01,2013-02-09 13:15:00,
2013-02-09 05:20:00,32.2,30.4,29.94,SE,138,0.0,1.0,93,0.00,,---,0.01,VWS V14.01,2013-02-09 13:20:00,
2013-02-09 05:25:00,32.4,30.6,29.94,SE,138,0.0,1.0,93,0.00,,---,0.01,VWS V14.01,2013-02-09 13:25:00,
2013-02-09 05:30:00,32.4,30.6,29.94,SE,138,0.0,0.0,93,0.00,,---,0.01,VWS V14.01,2013-02-09 13:30:00,
2013-02-09 05:35:00,32.4,30.6,29.94,SE,138,0.0,0.0,93,0.00,,---,0.01,VWS V14.01,2013-02-09 13:35:00,
2013-02-09 05:40:00,32.4,30.6,29.94,SE,138,0.0,0.0,93,0.00,,---,0.01,VWS V14.01,2013-02-09 13:40:00,
2013-02-09 05:45:00,32.2,30.4,29.95,SE,138,0.0,0.0,93,0.00,,---,0.01,VWS V14.01,2013-02-09 13:45:00,
2013-02-09 05:50:00,32.1,30.3,29.95,SE,138,0.0,0.0,93,0.00,,---,0.01,VWS V14.01,2013-02-09 13:50:00,
2013-02-09 05:55:00,31.9,30.1,29.95,SE,138,0.0,0.0,93,0.00,,---,0.01,VWS V14.01,2013-02-09 13:55:00,
2013-02-09 06:00:00,31.8,30.0,29.95,SE,138,0.0,0.0,93,0.00,,---,0.01,VWS V14.01,2013-02-09 14:00:00,
2013-02-09 06:05:00,31.6,29.8,29.95,SE,138,0.0,0.0,93,0.00,,---,0.01,VWS V14.01,2013-02-09 14:05:00,
2013-02-09 06:10:00,31.5,29.7,29.95,SE,138,0.0,0.0,93,0.00,,---,0.01,VWS V14.01,2013-02-09 14:10:00,
2013-02-09 06:15:00,31.5,29.7,29.96,SE,138,0.0,0.0,93,0.00,,---,0.01,VWS V14.01,2013-02-09 14:15:00,
2013-02-09 06:20:00,31.3,29.5,29.96,SE,138,0.0,0.0,93,0.00,,---,0.01,VWS V14.01,2013-02-09 14:20:00,
2013-02-09 06:25:00,31.2,29.4,29.96,SE,138,0.0,0.0,93,0.00,,---,0.01,VWS V14.01,2013-02-09 14:25:00,
2013-02-09 06:30:00,31.0,29.2,29.96,SE,138,0.0,0.0,93,0.00,,---,0.01,VWS V14.01,2013-02-09 14:30:00,
2013-02-09 06:35:00,31.0,29.2,29.96,SE,138,0.0,0.0,93,0.00,,---,0.01,VWS V14.01,2013-02-09 14:35:00,
2013-02-09 06:40:00,31.0,29.2,29.96,SE,138,0.0,0.0,93,0.00,,---,0.01,VWS V14.01,2013-02-09 14:40:00,
2013-02-09 06:45:00,31.0,29.2,29.98,SE,138,0.0,0.0,93,0.00,,---,0.01,VWS V14.01,2013-02-09 14:45:00,
2013-02-09 06:50:00,31.0,29.2,29.98,SE,138,0.0,0.0,93,0.00,,---,0.01,VWS V14.01,2013-02-09 14:50:00,
2013-02-09 06:55:00,31.0,29.2,29.98,SE,138,0.0,0.0,93,0.00,,---,0.01,VWS V14.01,2013-02-09 14:55:00,
2013-02-09 07:00:00,31.2,29.4,29.99,SE,138,0.0,0.0,93,0.00,,---,0.01,VWS V14.01,2013-02-09 15:00:00,
2013-02-09 07:05:00,31.3,29.5,29.99,SE,138,0.0,0.0,93,0.00,,---,0.01,VWS V14.01,2013-02-09 15:05:00,
2013-02-09 07:10:00,31.5,29.7,29.99,SE,138,0.0,0.0,93,0.00,,---,0.01,VWS V14.01,2013-02-09 15:10:00,
2013-02-09 07:15:00,31.5,29.7,29.99,SE,138,0.0,0.0,93,0.00,,---,0.01,VWS V14.01,2013-02-09 15:15:00,
2013-02-09 07:20:00,31.6,29.8,29.99,SE,138,0.0,0.0,93,0.00,,---,0.01,VWS V14.01,2013-02-09 15:20:00,
2013-02-09 07:25:00,31.8,30.0,29.99,SE,138,0.0,0.0,93,0.00,,---,0.01,VWS V14.01,2013-02-09 15:25:00,
2013-02-09 07:30:00,31.9,30.1,30.00,SE,138,0.0,0.0,93,0.00,,---,0.01,VWS V14.01,2013-02-09 15:30:00,
2013-02-09 07:35:00,32.1,30.3,30.00,SE,138,0.0,0.0,93,0.00,,---,0.01,VWS V14.01,2013-02-09 15:35:00,
2013-02-09 07:40:00,32.2,30.4,30.00,SE,138,0.0,0.0,93,0.00,,---,0.01,VWS V14.01,2013-02-09 15:40:00,
2013-02-09 07:45:00,32.4,30.6,30.00,SE,138,0.0,0.0,93,0.00,,---,0.01,VWS V14.01,2013-02-09 15:45:00,
2013-02-09 07:50:00,32.4,30.6,30.00,SE,138,0.0,0.0,93,0.00,,---,0.01,VWS V14.01,2013-02-09 15:50:00,
2013-02-09 07:55:00,32.5,30.7,30.00,SE,138,0.0,0.0,93,0.00,,---,0.01,VWS V14.01,2013-02-09 15:55:00,
2013-02-09 08:00:00,32.8,31.3,30.01,SE,138,0.0,0.0,94,0.00,,---,0.01,VWS V14.01,2013-02-09 16:00:00,
2013-02-09 08:05:00,33.1,31.6,30.01,SE,138,0.0,0.0,94,0.00,,---,0.01,VWS V14.01,2013-02-09 16:05:00,
2013-02-09 08:10:00,33.5,32.0,30.01,SE,138,0.0,0.0,94,0.00,,---,0.01,VWS V14.01,2013-02-09 16:10:00,
2013-02-09 08:15:00,34.1,32.6,30.02,SE,138,0.0,0.0,94,0.00,,---,0.01,VWS V14.01,2013-02-09 16:15:00,
2013-02-09 08:20:00,34.4,32.9,30.02,SE,138,0.0,0.0,94,0.00,,---,0.01,VWS V14.01,2013-02-09 16:20:00,
2013-02-09 08:25:00,34.9,33.3,30.02,SE,138,0.0,0.0,94,0.00,,---,0.01,VWS V14.01,2013-02-09 16:25:00,
2013-02-09 08:30:00,35.3,33.8,30.03,SE,138,0.0,0.0,94,0.00,,---,0.01,VWS V14.01,2013-02-09 16:30:00,
2013-02-09 08:35:00,35.8,34.2,30.03,SE,138,0.0,1.0,94,0.00,,---,0.01,VWS V14.01,2013-02-09 16:35:00,
2013-02-09 08:40:00,36.3,34.7,30.03,SE,138,0.0,1.0,94,0.00,,---,0.01,VWS V14.01,2013-02-09 16:40:00,
2013-02-09 08:45:00,37.0,35.4,30.03,SE,138,0.0,1.0,94,0.00,,---,0.01,VWS V14.01,2013-02-09 16:45:00,
2013-02-09 08:50:00,37.8,36.2,30.03,SE,138,0.0,1.0,94,0.00,,---,0.01,VWS V14.01,2013-02-09 16:50:00,
2013-02-09 08:55:00,38.2,36.6,30.03,SE,138,0.0,1.0,94,0.00,,---,0.01,VWS V14.01,2013-02-09 16:55:00,
2013-02-09 09:00:00,38.5,36.9,30.03,SE,138,1.0,1.0,94,0.00,,---,0.01,VWS V14.01,2013-02-09 17:00:00,
2013-02-09 09:05:00,39.2,37.6,30.03,SE,138,0.0,1.0,94,0.00,,---,0.01,VWS V14.01,2013-02-09 17:05:00,
2013-02-09 09:10:00,39.8,38.2,30.03,SE,138,0.0,1.0,94,0.00,,---,0.01,VWS V14.01,2013-02-09 17:10:00,
2013-02-09 09:15:00,40.5,38.9,30.02,SE,140,0.0,1.0,94,0.00,,---,0.01,VWS V14.01,2013-02-09 17:15:00,
2013-02-09 09:20:00,40.9,39.3,30.02,SE,140,0.0,1.0,94,0.00,,---,0.01,VWS V14.01,2013-02-09 17:20:00,
2013-02-09 09:25:00,40.8,39.2,30.02,SE,138,0.0,1.0,94,0.00,,---,0.01,VWS V14.01,2013-02-09 17:25:00,
2013-02-09 09:30:00,40.6,39.0,30.02,SE,138,0.0,1.0,94,0.00,,---,0.01,VWS V14.01,2013-02-09 17:30:00,
2013-02-09 09:35:00,40.8,39.2,30.02,SE,138,0.0,1.0,94,0.00,,---,0.01,VWS V14.01,2013-02-09 17:35:00,
2013-02-09 09:40:00,41.5,39.9,30.02,SE,138,0.0,1.0,94,0.00,,---,0.01,VWS V14.01,2013-02-09 17:40:00,
2013-02-09 09:45:00,41.9,40.3,30.03,SE,138,1.0,1.0,94,0.00,,---,0.01,VWS V14.01,2013-02-09 17:45:00,
2013-02-09 09:50:00,41.9,40.3,30.03,SSW,209,0.0,2.0,94,0.00,,---,0.01,VWS V14.01,2013-02-09 17:50:00,
2013-02-09 09:55:00,41.8,40.2,30.03,SSW,210,0.0,2.0,94,0.00,,---,0.01,VWS V14.01,2013-02-09 17:55:00,
2013-02-09 10:00:00,41.8,39.9,30.04,SSW,210,0.0,2.0,93,0.00,,---,0.01,VWS V14.01,2013-02-09 18:00:00,
2013-02-09 10:05:00,41.9,40.0,30.04,SSW,210,1.0,1.0,93,0.00,,---,0.01,VWS V14.01,2013-02-09 18:05:00,
2013-02-09 10:10:00,41.9,40.0,30.04,SSW,210,0.0,2.0,93,0.00,,---,0.01,VWS V14.01,2013-02-09 18:10:00,
2013-02-09 10:15:00,42.2,40.6,30.04,SSW,210,0.0,2.0,94,0.00,,---,0.01,VWS V14.01,2013-02-09 18:15:00,
2013-02-09 10:20:00,42.5,40.6,30.04,SSW,212,0.0,2.0,93,0.00,,---,0.01,VWS V14.01,2013-02-09 18:20:00,
2013-02-09 10:25:00,42.6,40.7,30.04,SSW,210,0.0,2.0,93,0.00,,---,0.01,VWS V14.01,2013-02-09 18:25:00,
2013-02-09 10:30:00,42.6,40.7,30.04,WNW,296,0.0,3.0,93,0.00,,---,0.01,VWS V14.01,2013-02-09 18:30:00,
2013-02-09 10:35:00,43.2,41.3,30.04,WNW,302,0.0,3.0,93,0.00,,---,0.01,VWS V14.01,2013-02-09 18:35:00,
2013-02-09 10:40:00,43.8,41.6,30.04,WSW,248,0.0,3.0,92,0.00,,---,0.01,VWS V14.01,2013-02-09 18:40:00,
2013-02-09 10:45:00,43.9,40.9,30.04,NNE,21,0.0,3.0,89,0.00,,---,0.01,VWS V14.01,2013-02-09 18:45:00,
2013-02-09 10:50:00,43.9,40.6,30.04,East,100,0.0,3.0,88,0.00,,---,0.01,VWS V14.01,2013-02-09 18:50:00,
2013-02-09 10:55:00,43.1,39.2,30.04,East,100,0.0,3.0,86,0.00,,---,0.01,VWS V14.01,2013-02-09 18:55:00,
2013-02-09 11:00:00,42.9,38.4,30.04,NE,38,1.0,3.0,84,0.00,,---,0.01,VWS V14.01,2013-02-09 19:00:00,
2013-02-09 11:05:00,42.8,38.0,30.04,North,3,0.0,2.0,83,0.00,,---,0.01,VWS V14.01,2013-02-09 19:05:00,
2013-02-09 11:10:00,42.8,37.4,30.04,North,356,0.0,3.0,81,0.00,,---,0.01,VWS V14.01,2013-02-09 19:10:00,
2013-02-09 11:15:00,42.9,37.2,30.04,North,356,0.0,3.0,80,0.00,,---,0.01,VWS V14.01,2013-02-09 19:15:00,
2013-02-09 11:20:00,43.6,37.5,30.04,ENE,71,0.0,3.0,79,0.00,,---,0.01,VWS V14.01,2013-02-09 19:20:00,
2013-02-09 11:25:00,44.8,38.0,30.04,NE,37,3.0,4.0,77,0.00,,---,0.01,VWS V14.01,2013-02-09 19:25:00,
2013-02-09 11:30:00,45.5,38.0,30.04,NNE,27,2.0,4.0,75,0.00,,---,0.01,VWS V14.01,2013-02-09 19:30:00,
2013-02-09 11:35:00,46.1,38.6,30.04,ENE,59,0.0,3.0,75,0.00,,---,0.01,VWS V14.01,2013-02-09 19:35:00,
2013-02-09 11:40:00,46.8,37.9,30.04,NE,45,0.0,3.0,71,0.00,,---,0.01,VWS V14.01,2013-02-09 19:40:00,
2013-02-09 11:45:00,47.0,38.1,30.03,ENE,71,1.0,5.0,71,0.00,,---,0.01,VWS V14.01,2013-02-09 19:45:00,
2013-02-09 11:50:00,47.3,38.0,30.03,ENE,73,2.0,5.0,70,0.00,,---,0.01,VWS V14.01,2013-02-09 19:50:00,
2013-02-09 11:55:00,47.6,37.6,30.03,NNE,27,0.0,5.0,68,0.00,,---,0.01,VWS V14.01,2013-02-09 19:55:00,
2013-02-09 12:00:00,47.7,37.7,30.03,NE,49,2.0,5.0,68,0.00,,---,0.01,VWS V14.01,2013-02-09 20:00:00,
2013-02-09 12:05:00,47.3,36.5,30.03,NNE,27,1.0,5.0,66,0.00,,---,0.01,VWS V14.01,2013-02-09 20:05:00,
2013-02-09 12:10:00,46.5,35.8,30.03,NNE,24,1.0,7.0,66,0.00,,---,0.01,VWS V14.01,2013-02-09 20:10:00,
2013-02-09 12:15:00,46.4,36.0,30.03,NNW,340,0.0,7.0,67,0.00,,---,0.01,VWS V14.01,2013-02-09 20:15:00,
2013-02-09 12:20:00,46.4,35.7,30.03,North,4,0.0,7.0,66,0.00,,---,0.01,VWS V14.01,2013-02-09 20:20:00,
2013-02-09 12:25:00,46.7,35.6,30.03,North,4,0.0,7.0,65,0.00,,---,0.01,VWS V14.01,2013-02-09 20:25:00,
2013-02-09 12:30:00,47.4,35.8,30.02,North,1,0.0,7.0,64,0.00,,---,0.01,VWS V14.01,2013-02-09 20:30:00,
2013-02-09 12:35:00,47.9,35.9,30.02,North,1,0.0,1.0,63,0.00,,---,0.01,VWS V14.01,2013-02-09 20:35:00,
2013-02-09 12:40:00,48.2,35.8,30.02,NNE,20,1.0,2.0,62,0.00,,---,0.01,VWS V14.01,2013-02-09 20:40:00,
2013-02-09 12:45:00,48.9,36.5,30.01,ENE,66,3.0,4.0,62,0.00,,---,0.01,VWS V14.01,2013-02-09 20:45:00,
2013-02-09 12:50:00,49.4,36.1,30.01,ESE,123,0.0,4.0,60,0.00,,---,0.01,VWS V14.01,2013-02-09 20:50:00,
2013-02-09 12:55:00,49.4,36.1,30.01,SE,126,0.0,4.0,60,0.00,,---,0.01,VWS V14.01,2013-02-09 20:55:00,
2013-02-09 13:00:00,49.1,36.2,30.01,ESE,109,3.0,4.0,61,0.00,,---,0.01,VWS V14.01,2013-02-09 21:00:00,
2013-02-09 13:05:00,49.2,35.9,30.01,SE,138,1.0,2.0,60,0.00,,---,0.01,VWS V14.01,2013-02-09 21:05:00,
2013-02-09 13:10:00,49.1,36.2,30.01,ENE,66,3.0,3.0,61,0.00,,---,0.01,VWS V14.01,2013-02-09 21:10:00,
2013-02-09 13:15:00,49.1,35.8,30.01,NNE,30,0.0,7.0,60,0.00,,---,0.01,VWS V14.01,2013-02-09 21:15:00,
2013-02-09 13:20:00,49.5,35.8,30.01,ENE,68,1.0,7.0,59,0.00,,---,0.01,VWS V14.01,2013-02-09 21:20:00,
2013-02-09 13:25:00,49.5,35.8,30.01,NNE,20,0.0,7.0,59,0.00,,---,0.01,VWS V14.01,2013-02-09 21:25:00,
2013-02-09 13:30:00,49.2,34.2,30.01,NNE,20,0.0,7.0,56,0.00,,---,0.01,VWS V14.01,2013-02-09 21:30:00,
2013-02-09 13:35:00,49.2,35.5,30.01,NNE,23,0.0,1.0,59,0.00,,---,0.01,VWS V14.01,2013-02-09 21:35:00,
2013-02-09 13:40:00,49.2,35.5,30.01,NNE,23,0.0,1.0,59,0.00,,---,0.01,VWS V14.01,2013-02-09 21:40:00,
2013-02-09 13:45:00,49.5,35.8,30.01,NNE,23,0.0,1.0,59,0.00,,---,0.01,VWS V14.01,2013-02-09 21:45:00,
2013-02-09 13:50:00,49.8,36.1,30.01,NNE,23,1.0,1.0,59,0.00,,---,0.01,VWS V14.01,2013-02-09 21:50:00,
2013-02-09 13:55:00,49.9,35.7,30.01,NNE,23,0.0,1.0,58,0.00,,---,0.01,VWS V14.01,2013-02-09 21:55:00,
2013-02-09 14:00:00,49.9,35.7,30.01,ESE,107,0.0,2.0,58,0.00,,---,0.01,VWS V14.01,2013-02-09 22:00:00,
2013-02-09 14:05:00,49.6,34.6,30.01,NE,45,0.0,1.0,56,0.00,,---,0.01,VWS V14.01,2013-02-09 22:05:00,
2013-02-09 14:10:00,49.6,35.5,30.01,NNE,28,0.0,2.0,58,0.00,,---,0.01,VWS V14.01,2013-02-09 22:10:00,
2013-02-09 14:15:00,49.6,35.5,30.01,NNE,28,0.0,2.0,58,0.00,,---,0.01,VWS V14.01,2013-02-09 22:15:00,
2013-02-09 14:20:00,50.2,34.2,30.01,West,265,2.0,3.0,54,0.00,,---,0.01,VWS V14.01,2013-02-09 22:20:00,
2013-02-09 14:25:00,50.8,33.3,30.01,NW,304,0.0,3.0,51,0.00,,---,0.01,VWS V14.01,2013-02-09 22:25:00,
2013-02-09 14:30:00,51.1,33.1,30.01,West,264,0.0,3.0,50,0.00,,---,0.01,VWS V14.01,2013-02-09 22:30:00,
2013-02-09 14:35:00,51.6,34.1,30.01,SSW,193,0.0,3.0,51,0.00,,---,0.01,VWS V14.01,2013-02-09 22:35:00,
2013-02-09 14:40:00,51.7,33.2,30.01,West,277,1.0,3.0,49,0.00,,---,0.01,VWS V14.01,2013-02-09 22:40:00,
2013-02-09 14:45:00,51.9,34.4,30.01,NW,313,2.0,3.0,51,0.00,,---,0.01,VWS V14.01,2013-02-09 22:45:00,
2013-02-09 14:50:00,52.0,34.9,30.01,West,271,1.0,6.0,52,0.00,,---,0.01,VWS V14.01,2013-02-09 22:50:00,
2013-02-09 14:55:00,51.7,34.2,30.01,West,271,1.0,6.0,51,0.00,,---,0.01,VWS V14.01,2013-02-09 22:55:00,
2013-02-09 15:00:00,51.7,34.7,30.01,North,359,1.0,6.0,52,0.00,,---,0.01,VWS V14.01,2013-02-09 23:00:00,
2013-02-09 15:05:00,51.6,33.6,30.01,North,11,1.0,5.0,50,0.00,,---,0.01,VWS V14.01,2013-02-09 23:05:00,
2013-02-09 15:10:00,51.4,33.4,30.01,North,10,2.0,5.0,50,0.00,,---,0.01,VWS V14.01,2013-02-09 23:10:00,
2013-02-09 15:15:00,51.1,32.1,30.01,NE,49,0.0,5.0,48,0.00,,---,0.01,VWS V14.01,2013-02-09 23:15:00,
2013-02-09 15:20:00,51.0,33.0,30.01,WNW,298,0.0,5.0,50,0.00,,---,0.01,VWS V14.01,2013-02-09 23:20:00,
2013-02-09 15:25:00,50.8,32.3,30.01,WNW,298,0.0,5.0,49,0.00,,---,0.01,VWS V14.01,2013-02-09 23:25:00,
2013-02-09 15:30:00,50.8,33.3,30.01,West,263,0.0,5.0,51,0.00,,---,0.01,VWS V14.01,2013-02-09 23:30:00,
2013-02-09 15:35:00,50.7,33.2,30.01,West,263,0.0,1.0,51,0.00,,---,0.01,VWS V14.01,2013-02-09 23:35:00,
2013-02-09 15:40:00,50.4,33.0,30.01,West,272,0.0,2.0,51,0.00,,---,0.01,VWS V14.01,2013-02-09 23:40:00,
2013-02-09 15:45:00,50.2,32.3,30.01,West,272,0.0,2.0,50,0.00,,---,0.01,VWS V14.01,2013-02-09 23:45:00,
2013-02-09 15:50:00,50.1,32.7,30.01,West,272,0.0,2.0,51,0.00,,---,0.01,VWS V14.01,2013-02-09 23:50:00,
2013-02-09 15:55:00,49.9,32.5,30.01,West,272,2.0,2.0,51,0.00,,---,0.01,VWS V14.01,2013-02-09 23:55:00,
2013-02-09 16:00:00,49.8,32.4,30.01,West,280,0.0,2.0,51,0.00,,---,0.01,VWS V14.01,2013-02-10 00:00:00,
2013-02-09 16:05:00,49.6,31.7,30.01,West,280,0.0,0.0,50,0.00,,---,0.01,VWS V14.01,2013-02-10 00:05:00,
2013-02-09 16:10:00,49.5,32.1,30.01,NW,311,0.0,1.0,51,0.00,,---,0.01,VWS V14.01,2013-02-10 00:10:00,
2013-02-09 16:15:00,49.4,32.0,30.01,NW,311,0.0,1.0,51,0.00,,---,0.01,VWS V14.01,2013-02-10 00:15:00,
2013-02-09 16:20:00,49.4,32.5,30.01,NW,311,0.0,1.0,52,0.00,,---,0.01,VWS V14.01,2013-02-10 00:20:00,
2013-02-09 16:25:00,49.4,33.0,30.01,NW,311,0.0,1.0,53,0.00,,---,0.01,VWS V14.01,2013-02-10 00:25:00,
2013-02-09 16:30:00,49.2,33.7,30.01,NW,316,0.0,1.0,55,0.00,,---,0.01,VWS V14.01,2013-02-10 00:30:00,
2013-02-09 16:35:00,48.9,33.0,30.01,NW,319,1.0,1.0,54,0.00,,---,0.01,VWS V14.01,2013-02-10 00:35:00,
2013-02-09 16:40:00,48.8,33.4,30.01,NE,37,0.0,2.0,55,0.00,,---,0.01,VWS V14.01,2013-02-10 00:40:00,
2013-02-09 16:45:00,48.6,33.6,30.01,NE,37,0.0,2.0,56,0.00,,---,0.01,VWS V14.01,2013-02-10 00:45:00,
2013-02-09 16:50:00,48.3,33.8,30.01,NE,40,0.0,2.0,57,0.00,,---,0.01,VWS V14.01,2013-02-10 00:50:00,
2013-02-09 16:55:00,48.3,34.2,30.01,NE,40,0.0,2.0,58,0.00,,---,0.01,VWS V14.01,2013-02-10 00:55:00,
2013-02-09 17:00:00,48.0,33.9,30.01,ENE,65,0.0,2.0,58,0.00,,---,0.01,VWS V14.01,2013-02-10 01:00:00,
2013-02-09 17:05:00,47.9,33.8,30.01,ENE,65,0.0,1.0,58,0.00,,---,0.01,VWS V14.01,2013-02-10 01:05:00,
2013-02-09 17:10:00,47.7,34.1,30.01,ENE,65,0.0,1.0,59,0.00,,---,0.01,VWS V14.01,2013-02-10 01:10:00,
2013-02-09 17:15:00,47.6,34.0,30.01,ENE,65,0.0,1.0,59,0.00,,---,0.01,VWS V14.01,2013-02-10 01:15:00,
2013-02-09 17:20:00,47.4,34.2,30.01,ENE,65,0.0,1.0,60,0.00,,---,0.01,VWS V14.01,2013-02-10 01:20:00,
2013-02-09 17:25:00,47.1,33.9,30.01,ENE,65,0.0,1.0,60,0.00,,---,0.01,VWS V14.01,2013-02-10 01:25:00,
2013-02-09 17:30:00,47.0,33.8,30.02,ENE,65,0.0,1.0,60,0.00,,---,0.01,VWS V14.01,2013-02-10 01:30:00,
2013-02-09 17:35:00,46.7,34.4,30.02,ENE,65,0.0,0.0,62,0.00,,---,0.01,VWS V14.01,2013-02-10 01:35:00,
2013-02-09 17:40:00,46.4,34.1,30.02,ENE,65,0.0,0.0,62,0.00,,---,0.01,VWS V14.01,2013-02-10 01:40:00,
2013-02-09 17:45:00,46.1,34.6,30.02,ENE,65,0.0,0.0,64,0.00,,---,0.01,VWS V14.01,2013-02-10 01:45:00,
2013-02-09 17:50:00,45.7,34.6,30.02,ENE,65,0.0,0.0,65,0.00,,---,0.01,VWS V14.01,2013-02-10 01:50:00,
2013-02-09 17:55:00,45.4,34.7,30.02,ENE,65,0.0,0.0,66,0.00,,---,0.01,VWS V14.01,2013-02-10 01:55:00,
2013-02-09 18:00:00,44.9,34.6,30.02,ENE,65,0.0,0.0,67,0.00,,---,0.01,VWS V14.01,2013-02-10 02:00:00,
2013-02-09 18:05:00,44.6,34.7,30.02,ENE,65,0.0,0.0,68,0.00,,---,0.01,VWS V14.01,2013-02-10 02:05:00,
2013-02-09 18:10:00,44.2,34.7,30.02,ENE,65,0.0,0.0,69,0.00,,---,0.01,VWS V14.01,2013-02-10 02:10:00,
2013-02-09 18:15:00,43.9,34.4,30.03,ENE,65,0.0,0.0,69,0.00,,---,0.01,VWS V14.01,2013-02-10 02:15:00,
2013-02-09 18:20:00,43.5,34.7,30.03,ENE,65,0.0,0.0,71,0.00,,---,0.01,VWS V14.01,2013-02-10 02:20:00,
2013-02-09 18:25:00,43.2,34.8,30.03,ENE,65,0.0,0.0,72,0.00,,---,0.01,VWS V14.01,2013-02-10 02:25:00,
2013-02-09 18:30:00,42.8,34.4,30.03,ENE,65,0.0,0.0,72,0.00,,---,0.01,VWS V14.01,2013-02-10 02:30:00,
2013-02-09 18:35:00,42.5,34.5,30.03,ENE,65,0.0,0.0,73,0.00,,---,0.01,VWS V14.01,2013-02-10 02:35:00,
2013-02-09 18:40:00,42.2,34.5,30.03,ENE,65,0.0,0.0,74,0.00,,---,0.01,VWS V14.01,2013-02-10 02:40:00,
2013-02-09 18:45:00,42.1,34.8,30.04,ENE,65,0.0,1.0,75,0.00,,---,0.01,VWS V14.01,2013-02-10 02:45:00,
2013-02-09 18:50:00,41.9,34.6,30.04,ENE,65,0.0,1.0,75,0.00,,---,0.01,VWS V14.01,2013-02-10 02:50:00,
2013-02-09 18:55:00,41.8,34.5,30.04,ENE,65,0.0,1.0,75,0.00,,---,0.01,VWS V14.01,2013-02-10 02:55:00,
2013-02-09 19:00:00,41.6,34.3,30.04,ENE,65,0.0,1.0,75,0.00,,---,0.01,VWS V14.01,2013-02-10 03:00:00,
2013-02-09 19:05:00,41.3,34.0,30.04,ENE,65,0.0,0.0,75,0.00,,---,0.01,VWS V14.01,2013-02-10 03:05:00,
2013-02-09 19:10:00,41.2,33.9,30.04,ENE,65,0.0,0.0,75,0.00,,---,0.01,VWS V14.01,2013-02-10 03:10:00,
2013-02-09 19:15:00,41.1,34.1,30.05,ENE,65,0.0,0.0,76,0.00,,---,0.01,VWS V14.01,2013-02-10 03:15:00,
2013-02-09 19:20:00,40.9,33.9,30.05,ENE,65,0.0,0.0,76,0.00,,---,0.01,VWS V14.01,2013-02-10 03:20:00,
2013-02-09 19:25:00,40.8,34.2,30.05,ENE,65,0.0,0.0,77,0.00,,---,0.01,VWS V14.01,2013-02-10 03:25:00,
2013-02-09 19:30:00,40.6,34.3,30.05,ENE,65,0.0,0.0,78,0.00,,---,0.01,VWS V14.01,2013-02-10 03:30:00,
2013-02-09 19:35:00,40.5,34.2,30.05,ENE,65,0.0,0.0,78,0.00,,---,0.01,VWS V14.01,2013-02-10 03:35:00,
2013-02-09 19:40:00,40.5,34.5,30.05,ENE,65,0.0,0.0,79,0.00,,---,0.01,VWS V14.01,2013-02-10 03:40:00,
2013-02-09 19:45:00,40.5,34.5,30.05,ENE,65,0.0,0.0,79,0.00,,---,0.01,VWS V14.01,2013-02-10 03:45:00,
2013-02-09 19:50:00,40.5,34.8,30.05,ENE,65,0.0,0.0,80,0.00,,---,0.01,VWS V14.01,2013-02-10 03:50:00,
2013-02-09 19:55:00,40.5,34.8,30.05,ENE,65,0.0,0.0,80,0.00,,---,0.01,VWS V14.01,2013-02-10 03:55:00,
2013-02-09 20:00:00,40.5,34.8,30.06,ENE,65,0.0,0.0,80,0.00,,---,0.01,VWS V14.01,2013-02-10 04:00:00,
2013-02-09 20:05:00,40.6,34.9,30.06,ENE,65,0.0,0.0,80,0.00,,---,0.01,VWS V14.01,2013-02-10 04:05:00,
2013-02-09 20:10:00,40.6,35.2,30.06,ENE,65,0.0,0.0,81,0.00,,---,0.01,VWS V14.01,2013-02-10 04:10:00,
2013-02-09 20:15:00,40.6,35.2,30.05,ENE,65,0.0,0.0,81,0.00,,---,0.01,VWS V14.01,2013-02-10 04:15:00,
2013-02-09 20:20:00,40.8,35.4,30.05,ENE,65,0.0,0.0,81,0.00,,---,0.01,VWS V14.01,2013-02-10 04:20:00,
2013-02-09 20:25:00,40.9,35.5,30.05,ENE,65,0.0,0.0,81,0.00,,---,0.01,VWS V14.01,2013-02-10 04:25:00,
2013-02-09 20:30:00,40.9,35.5,30.06,ENE,65,0.0,0.0,81,0.00,,---,0.01,VWS V14.01,2013-02-10 04:30:00,
2013-02-09 20:35:00,40.9,35.5,30.06,ENE,65,0.0,0.0,81,0.00,,---,0.01,VWS V14.01,2013-02-10 04:35:00,
2013-02-09 20:40:00,40.9,35.5,30.06,ENE,65,0.0,0.0,81,0.00,,---,0.01,VWS V14.01,2013-02-10 04:40:00,
2013-02-09 20:45:00,41.1,35.7,30.06,ENE,65,0.0,0.0,81,0.00,,---,0.01,VWS V14.01,2013-02-10 04:45:00,
2013-02-09 20:50:00,41.1,35.7,30.06,ENE,65,0.0,0.0,81,0.00,,---,0.01,VWS V14.01,2013-02-10 04:50:00,
2013-02-09 20:55:00,41.1,35.7,30.06,ENE,65,0.0,0.0,81,0.00,,---,0.01,VWS V14.01,2013-02-10 04:55:00,
2013-02-09 21:00:00,41.1,35.7,30.06,ENE,65,0.0,0.0,81,0.00,,---,0.01,VWS V14.01,2013-02-10 05:00:00,
2013-02-09 21:05:00,40.9,35.5,30.06,ENE,65,0.0,0.0,81,0.00,,---,0.01,VWS V14.01,2013-02-10 05:05:00,
2013-02-09 21:10:00,40.9,35.5,30.06,ENE,65,0.0,0.0,81,0.00,,---,0.01,VWS V14.01,2013-02-10 05:10:00,
2013-02-09 21:15:00,40.8,35.4,30.06,ENE,65,0.0,0.0,81,0.00,,---,0.01,VWS V14.01,2013-02-10 05:15:00,
2013-02-09 21:20:00,40.8,35.4,30.06,ENE,65,0.0,0.0,81,0.00,,---,0.01,VWS V14.01,2013-02-10 05:20:00,
2013-02-09 21:25:00,40.8,35.7,30.06,ENE,65,0.0,0.0,82,0.00,,---,0.01,VWS V14.01,2013-02-10 05:25:00,
2013-02-09 21:30:00,40.8,35.4,30.07,ESE,113,0.0,1.0,81,0.00,,---,0.01,VWS V14.01,2013-02-10 05:30:00,
2013-02-09 21:35:00,40.8,34.8,30.07,SE,124,0.0,2.0,79,0.00,,---,0.01,VWS V14.01,2013-02-10 05:35:00,
2013-02-09 21:40:00,40.8,34.2,30.07,ENE,73,1.0,2.0,77,0.00,,---,0.01,VWS V14.01,2013-02-10 05:40:00,
2013-02-09 21:45:00,40.8,33.5,30.07,ENE,76,0.0,2.0,75,0.00,,---,0.01,VWS V14.01,2013-02-10 05:45:00,
2013-02-09 21:50:00,40.9,33.6,30.07,ESE,102,0.0,2.0,75,0.00,,---,0.01,VWS V14.01,2013-02-10 05:50:00,
2013-02-09 21:55:00,41.1,33.1,30.07,East,93,0.0,2.0,73,0.00,,---,0.01,VWS V14.01,2013-02-10 05:55:00,
2013-02-09 22:00:00,41.1,32.8,30.07,East,90,0.0,2.0,72,0.00,,---,0.01,VWS V14.01,2013-02-10 06:00:00,
2013-02-09 22:05:00,41.1,32.8,30.07,East,90,0.0,0.0,72,0.00,,---,0.01,VWS V14.01,2013-02-10 06:05:00,
2013-02-09 22:10:00,40.9,32.2,30.07,East,90,0.0,1.0,71,0.00,,---,0.01,VWS V14.01,2013-02-10 06:10:00,
2013-02-09 22:15:00,40.9,32.6,30.07,East,90,0.0,1.0,72,0.00,,---,0.01,VWS V14.01,2013-02-10 06:15:00,
2013-02-09 22:20:00,40.9,32.6,30.07,East,90,0.0,1.0,72,0.00,,---,0.01,VWS V14.01,2013-02-10 06:20:00,
2013-02-09 22:25:00,40.8,32.8,30.07,East,90,0.0,1.0,73,0.00,,---,0.01,VWS V14.01,2013-02-10 06:25:00,
2013-02-09 22:30:00,40.6,32.6,30.07,East,90,0.0,1.0,73,0.00,,---,0.01,VWS V14.01,2013-02-10 06:30:00,
2013-02-09 22:35:00,40.6,33.0,30.07,East,90,0.0,0.0,74,0.00,,---,0.01,VWS V14.01,2013-02-10 06:35:00,
2013-02-09 22:40:00,40.5,32.9,30.07,East,90,0.0,0.0,74,0.00,,---,0.01,VWS V14.01,2013-02-10 06:40:00,
2013-02-09 22:45:00,40.3,33.0,30.08,East,90,0.0,0.0,75,0.00,,---,0.01,VWS V14.01,2013-02-10 06:45:00,
2013-02-09 22:50:00,40.2,32.9,30.08,East,90,0.0,0.0,75,0.00,,---,0.01,VWS V14.01,2013-02-10 06:50:00,
2013-02-09 22:55:00,40.2,33.2,30.08,East,90,0.0,1.0,76,0.00,,---,0.01,VWS V14.01,2013-02-10 06:55:00,
2013-02-09 23:00:00,40.2,33.2,30.08,East,90,0.0,1.0,76,0.00,,---,0.01,VWS V14.01,2013-02-10 07:00:00,
2013-02-09 23:05:00,40.2,33.2,30.08,East,90,0.0,0.0,76,0.00,,---,0.01,VWS V14.01,2013-02-10 07:05:00,
2013-02-09 23:10:00,40.2,33.6,30.08,East,90,0.0,0.0,77,0.00,,---,0.01,VWS V14.01,2013-02-10 07:10:00,
2013-02-09 23:15:00,40.2,33.6,30.07,East,90,0.0,0.0,77,0.00,,---,0.01,VWS V14.01,2013-02-10 07:15:00,
2013-02-09 23:20:00,40.1,33.5,30.07,East,90,0.0,0.0,77,0.00,,---,0.01,VWS V14.01,2013-02-10 07:20:00,
2013-02-09 23:25:00,40.1,33.5,30.07,East,90,0.0,0.0,77,0.00,,---,0.01,VWS V14.01,2013-02-10 07:25:00,
2013-02-09 23:30:00,40.1,33.8,30.07,East,90,0.0,0.0,78,0.00,,---,0.01,VWS V14.01,2013-02-10 07:30:00,
2013-02-09 23:35:00,40.2,33.9,30.07,East,90,0.0,0.0,78,0.00,,---,0.01,VWS V14.01,2013-02-10 07:35:00,
2013-02-09 23:40:00,40.3,34.0,30.07,East,90,0.0,0.0,78,0.00,,---,0.01,VWS V14.01,2013-02-10 07:40:00,
2013-02-09 23:45:00,40.3,33.7,30.08,East,90,0.0,0.0,77,0.00,,---,0.01,VWS V14.01,2013-02-10 07:45:00,
2013-02-09 23:50:00,40.3,33.7,30.08,East,90,0.0,0.0,77,0.00,,---,0.01,VWS V14.01,2013-02-10 07:50:00,
2013-02-09 23:55:00,40.5,33.9,30.08,East,90,0.0,0.0,77,0.00,,---,0.01,VWS V14.01,2013-02-10 07:55:00,